EmailTwitter


Surface observations / United Kingdom / EGLC

Regions: Quebec | Canada | USA | Europe | France | UK | Elsewhere
Station
Display
Info & Location for EGLC | Help decoding METAR

Weather Conditions observed on 2020/02/28 at 04:50 UTC at LONDON CITY AIRP, UK (EGLC)

Temperature: 3.0 Celsius.

Dewpoint: -1.0 Celsius.

Relative Humidity: 75%

Winds: Variable at 4 km/h or 2 knots.

Mean Sea level Pressure: 101.40 kilopascals.

Horizontal visibility: 6.21 statute miles or 9.94 kilometers.

Coded METAR:

EGLC 280450Z AUTO VRB02KT 9999 NCD 03/M01 Q1014=